Time,TemperatureF,DewpointF,PressureIn,WindDirection,WindDirectionDegrees,WindSpeedMPH,WindSpeedGustMPH,Humidity,HourlyPrecipIn,Conditions,Clouds,dailyrainin,SoftwareType,DateUTC
2013-02-15 00:01:00,15.0,13.0,-100.00,SSE,150,15.0,18.0,93,0.00,,,-99.99,,2013-02-15 07:01:00,
2013-02-15 00:11:00,15.0,13.0,-100.00,SSE,150,16.0,21.0,92,0.00,,,-99.99,,2013-02-15 07:11:00,
2013-02-15 00:21:00,15.0,12.0,-100.00,SSE,151,17.0,20.0,90,0.00,,,-99.99,,2013-02-15 07:21:00,
2013-02-15 00:32:00,-999.0,-99.9,-100.00,SSE,152,18.0,23.0,-999,-99.99,,,-99.99,,2013-02-15 07:32:00,
2013-02-15 00:41:00,16.0,12.0,-100.00,SSE,154,18.0,23.0,84,0.00,,,-99.99,,2013-02-15 07:41:00,
2013-02-15 00:52:00,16.0,12.0,-100.00,SSE,158,18.0,23.0,82,0.00,,,-99.99,,2013-02-15 07:52:00,
2013-02-15 01:01:00,17.0,13.0,-100.00,SSE,164,16.0,21.0,84,0.00,,,-99.99,,2013-02-15 08:01:00,
2013-02-15 01:11:00,17.0,13.0,-100.00,SSE,150,19.0,24.0,84,0.00,,,-99.99,,2013-02-15 08:11:00,
2013-02-15 01:21:00,16.0,13.0,-100.00,SSE,152,19.0,25.0,85,0.00,,,-99.99,,2013-02-15 08:21:00,
2013-02-15 01:31:00,15.0,12.0,-100.00,SSE,152,19.0,23.0,87,0.00,,,-99.99,,2013-02-15 08:31:00,
2013-02-15 01:41:00,16.0,12.0,-100.00,SSE,152,19.0,24.0,87,0.00,,,-99.99,,2013-02-15 08:41:00,
2013-02-15 01:52:00,15.0,12.0,-100.00,SSE,148,21.0,25.0,87,0.00,,,-99.99,,2013-02-15 08:52:00,
2013-02-15 02:01:00,15.0,12.0,-100.00,SSE,147,21.0,26.0,86,0.00,,,-99.99,,2013-02-15 09:01:00,
2013-02-15 02:12:00,15.0,12.0,-100.00,SE,145,21.0,28.0,85,0.00,,,-99.99,,2013-02-15 09:12:00,
2013-02-15 02:21:00,15.0,12.0,-100.00,SSE,147,22.0,26.0,85,0.00,,,-99.99,,2013-02-15 09:21:00,
2013-02-15 02:32:00,15.0,12.0,-100.00,SSE,147,22.0,28.0,85,0.00,,,-99.99,,2013-02-15 09:32:00,
2013-02-15 02:41:00,16.0,12.0,-100.00,SSE,148,23.0,27.0,84,0.00,,,-99.99,,2013-02-15 09:41:00,
2013-02-15 02:51:00,15.0,12.0,-100.00,SSE,150,21.0,26.0,85,0.00,,,-99.99,,2013-02-15 09:51:00,
2013-02-15 03:01:00,15.0,11.0,-100.00,SSE,150,22.0,27.0,85,-99.99,,,-99.99,,2013-02-15 10:01:00,
2013-02-15 03:11:00,15.0,11.0,-100.00,SSE,151,20.0,24.0,85,0.00,,,-99.99,,2013-02-15 10:11:00,
2013-02-15 03:21:00,15.0,11.0,-100.00,SSE,148,21.0,25.0,84,0.00,,,-99.99,,2013-02-15 10:21:00,
2013-02-15 03:31:00,15.0,12.0,-100.00,SSE,150,21.0,27.0,85,0.00,,,-99.99,,2013-02-15 10:31:00,
2013-02-15 03:41:00,15.0,12.0,-100.00,SSE,151,21.0,26.0,86,0.00,,,-99.99,,2013-02-15 10:41:00,
2013-02-15 03:51:00,15.0,12.0,-100.00,SSE,152,21.0,26.0,87,0.00,,,-99.99,,2013-02-15 10:51:00,
2013-02-15 04:01:00,15.0,13.0,-100.00,SSE,152,20.0,24.0,90,0.00,,,-99.99,,2013-02-15 11:01:00,
2013-02-15 04:22:00,15.0,13.0,-100.00,SSE,157,19.0,24.0,89,0.00,,,-99.99,,2013-02-15 11:22:00,
2013-02-15 04:31:00,15.0,13.0,-100.00,SSE,155,18.0,22.0,90,0.00,,,-99.99,,2013-02-15 11:31:00,
2013-02-15 04:42:00,15.0,13.0,-100.00,SSE,155,19.0,22.0,90,0.00,,,-99.99,,2013-02-15 11:42:00,
2013-02-15 04:52:00,15.0,13.0,-100.00,SSE,158,18.0,27.0,90,0.00,,,-99.99,,2013-02-15 11:52:00,
2013-02-15 05:01:00,15.0,12.0,-100.00,SSE,155,17.0,21.0,90,0.00,,,-99.99,,2013-02-15 12:01:00,
2013-02-15 05:11:00,15.0,12.0,-100.00,SSE,151,19.0,23.0,90,0.00,,,-99.99,,2013-02-15 12:11:00,
2013-02-15 05:21:00,15.0,12.0,-100.00,SSE,154,17.0,23.0,89,0.00,,,-99.99,,2013-02-15 12:21:00,
2013-02-15 05:32:00,15.0,11.0,-100.00,SSE,158,16.0,21.0,86,0.00,,,-99.99,,2013-02-15 12:32:00,
2013-02-15 05:42:00,15.0,11.0,-100.00,SSE,158,17.0,22.0,85,0.00,,,-99.99,,2013-02-15 12:42:00,
2013-02-15 05:52:00,15.0,11.0,-100.00,SSE,152,17.0,26.0,83,0.00,,,-99.99,,2013-02-15 12:52:00,
2013-02-15 06:02:00,15.0,11.0,-100.00,SSE,158,17.0,21.0,84,0.00,,,-99.99,,2013-02-15 13:02:00,
2013-02-15 06:11:00,15.0,11.0,-100.00,South,171,17.0,21.0,86,0.00,,,-99.99,,2013-02-15 13:11:00,
2013-02-15 06:21:00,15.0,12.0,-100.00,SSE,167,16.0,19.0,89,0.00,,,-99.99,,2013-02-15 13:21:00,
2013-02-15 06:32:00,15.0,13.0,-100.00,South,176,13.0,17.0,92,0.00,,,-99.99,,2013-02-15 13:32:00,
2013-02-15 06:41:00,15.0,13.0,-100.00,South,186,15.0,19.0,92,0.00,,,-99.99,,2013-02-15 13:41:00,
2013-02-15 06:52:00,15.0,13.0,-100.00,South,186,16.0,19.0,92,0.00,,,-99.99,,2013-02-15 13:52:00,
2013-02-15 07:01:00,15.0,13.0,-100.00,South,184,16.0,20.0,92,0.00,,,-99.99,,2013-02-15 14:01:00,
2013-02-15 07:11:00,15.0,13.0,-100.00,South,182,16.0,20.0,92,0.00,,,-99.99,,2013-02-15 14:11:00,
2013-02-15 07:21:00,15.0,13.0,-100.00,South,176,13.0,17.0,92,0.00,,,-99.99,,2013-02-15 14:21:00,
2013-02-15 07:32:00,14.0,12.0,-100.00,SSE,161,11.0,14.0,90,0.00,,,-99.99,,2013-02-15 14:32:00,
2013-02-15 07:41:00,14.0,12.0,-100.00,SSE,150,12.0,15.0,90,0.00,,,-99.99,,2013-02-15 14:41:00,
2013-02-15 07:52:00,15.0,12.0,-100.00,SSE,152,13.0,16.0,88,0.00,,,-99.99,,2013-02-15 14:52:00,
2013-02-15 08:01:00,15.0,12.0,-100.00,SSE,164,12.0,16.0,88,0.00,,,-99.99,,2013-02-15 15:01:00,
2013-02-15 08:11:00,15.0,11.0,-100.00,SSE,152,17.0,20.0,83,0.00,,,-99.99,,2013-02-15 15:11:00,
2013-02-15 08:21:00,15.0,10.0,-100.00,SSE,160,16.0,20.0,80,0.00,,,-99.99,,2013-02-15 15:21:00,
2013-02-15 08:32:00,15.0,10.0,-100.00,SSE,167,14.0,19.0,81,0.00,,,-99.99,,2013-02-15 15:32:00,
2013-02-15 08:42:00,16.0,11.0,-100.00,SSE,167,16.0,20.0,78,0.00,,,-99.99,,2013-02-15 15:42:00,
2013-02-15 08:51:00,16.0,11.0,-100.00,South,179,17.0,23.0,78,-99.99,,,-99.99,,2013-02-15 15:51:00,
2013-02-15 09:01:00,16.0,11.0,-100.00,South,179,18.0,25.0,78,0.00,,,-99.99,,2013-02-15 16:01:00,
2013-02-15 09:11:00,16.0,11.0,-100.00,South,181,19.0,22.0,78,0.00,,,-99.99,,2013-02-15 16:11:00,
2013-02-15 09:22:00,17.0,11.0,-100.00,South,181,19.0,23.0,78,0.00,,,-99.99,,2013-02-15 16:22:00,
2013-02-15 09:31:00,17.0,11.0,-100.00,South,175,19.0,26.0,76,0.00,,,-99.99,,2013-02-15 16:31:00,
2013-02-15 09:42:00,17.0,11.0,-100.00,South,181,22.0,29.0,77,0.00,,,-99.99,,2013-02-15 16:42:00,
2013-02-15 09:51:00,17.0,11.0,-100.00,South,184,22.0,27.0,77,0.00,,,-99.99,,2013-02-15 16:51:00,
2013-02-15 10:01:00,18.0,11.0,-100.00,South,185,20.0,25.0,76,0.00,,,-99.99,,2013-02-15 17:01:00,
2013-02-15 10:11:00,18.0,12.0,-100.00,South,184,22.0,30.0,77,0.00,,,-99.99,,2013-02-15 17:11:00,
2013-02-15 10:21:00,18.0,12.0,-100.00,South,188,22.0,28.0,77,0.00,,,-99.99,,2013-02-15 17:21:00,
2013-02-15 10:32:00,18.0,11.0,-100.00,South,186,23.0,27.0,74,0.00,,,-99.99,,2013-02-15 17:32:00,
2013-02-15 10:41:00,18.0,11.0,-100.00,South,189,23.0,27.0,74,0.00,,,-99.99,,2013-02-15 17:41:00,
2013-02-15 10:52:00,19.0,11.0,-100.00,South,189,21.0,26.0,73,0.00,,,-99.99,,2013-02-15 17:52:00,
2013-02-15 11:01:00,19.0,11.0,-100.00,South,191,21.0,25.0,72,0.00,,,-99.99,,2013-02-15 18:01:00,
2013-02-15 11:11:00,19.0,11.0,-100.00,South,191,21.0,25.0,70,0.00,,,-99.99,,2013-02-15 18:11:00,
2013-02-15 11:21:00,18.0,11.0,-100.00,South,189,19.0,24.0,73,0.00,,,-99.99,,2013-02-15 18:21:00,
2013-02-15 11:31:00,19.0,11.0,-100.00,South,191,21.0,27.0,71,0.00,,,-99.99,,2013-02-15 18:31:00,
2013-02-15 11:41:00,19.0,11.0,-100.00,SSW,192,21.0,25.0,71,-99.99,,,-99.99,,2013-02-15 18:41:00,
2013-02-15 11:52:00,20.0,12.0,-100.00,SSW,196,21.0,27.0,70,0.00,,,-99.99,,2013-02-15 18:52:00,
2013-02-15 12:01:00,20.0,11.0,-100.00,SSW,203,21.0,30.0,68,0.00,,,-99.99,,2013-02-15 19:01:00,
2013-02-15 12:11:00,20.0,12.0,-100.00,SSW,205,21.0,29.0,69,0.00,,,-99.99,,2013-02-15 19:11:00,
2013-02-15 12:22:00,21.0,13.0,-100.00,SSW,202,21.0,32.0,71,0.00,,,-99.99,,2013-02-15 19:22:00,
2013-02-15 12:32:00,20.0,12.0,-100.00,SSW,199,22.0,30.0,71,0.00,,,-99.99,,2013-02-15 19:32:00,
2013-02-15 12:41:00,20.0,12.0,-100.00,SSW,195,22.0,29.0,70,0.00,,,-99.99,,2013-02-15 19:41:00,
2013-02-15 12:51:00,21.0,13.0,-100.00,SSW,195,24.0,30.0,70,0.00,,,-99.99,,2013-02-15 19:51:00,
2013-02-15 13:01:00,21.0,13.0,-100.00,SSW,192,25.0,30.0,70,0.00,,,-99.99,,2013-02-15 20:01:00,
2013-02-15 13:11:00,21.0,13.0,-100.00,SSW,192,24.0,30.0,71,0.00,,,-99.99,,2013-02-15 20:11:00,
2013-02-15 13:21:00,22.0,12.0,-100.00,SSW,192,22.0,27.0,66,0.00,,,-99.99,,2013-02-15 20:21:00,
2013-02-15 13:32:00,22.0,13.0,-100.00,SSW,195,21.0,29.0,68,0.00,,,-99.99,,2013-02-15 20:32:00,
2013-02-15 13:42:00,21.0,12.0,-100.00,SSW,192,25.0,29.0,66,0.00,,,-99.99,,2013-02-15 20:42:00,
2013-02-15 13:52:00,21.0,12.0,-100.00,South,188,24.0,31.0,66,0.00,,,-99.99,,2013-02-15 20:52:00,
2013-02-15 14:01:00,21.0,13.0,-100.00,South,191,23.0,30.0,71,0.00,,,-99.99,,2013-02-15 21:01:00,
2013-02-15 14:11:00,21.0,13.0,-100.00,South,189,22.0,27.0,70,0.00,,,-99.99,,2013-02-15 21:11:00,
2013-02-15 14:21:00,21.0,14.0,-100.00,South,188,22.0,27.0,72,0.00,,,-99.99,,2013-02-15 21:21:00,
2013-02-15 14:31:00,21.0,13.0,-100.00,South,179,22.0,28.0,72,0.00,,,-99.99,,2013-02-15 21:31:00,
2013-02-15 14:42:00,22.0,14.0,-100.00,South,181,21.0,28.0,71,0.00,,,-99.99,,2013-02-15 21:42:00,
2013-02-15 14:51:00,20.0,16.0,-100.00,South,174,21.0,27.0,81,0.00,,,-99.99,,2013-02-15 21:51:00,
2013-02-15 15:02:00,20.0,16.0,-100.00,SSE,160,25.0,31.0,84,0.00,,,-99.99,,2013-02-15 22:02:00,
2013-02-15 15:11:00,20.0,16.0,-100.00,SSE,158,26.0,32.0,84,0.00,,,-99.99,,2013-02-15 22:11:00,
2013-02-15 15:21:00,20.0,17.0,-100.00,SSE,161,27.0,34.0,86,0.00,,,-99.99,,2013-02-15 22:21:00,
2013-02-15 15:31:00,20.0,17.0,-100.00,SSE,160,29.0,34.0,89,0.00,,,-99.99,,2013-02-15 22:31:00,
2013-02-15 15:41:00,20.0,16.0,-100.00,SSE,158,29.0,34.0,87,0.00,,,-99.99,,2013-02-15 22:41:00,
2013-02-15 15:51:00,20.0,16.0,-100.00,SSE,158,29.0,36.0,83,0.00,,,-99.99,,2013-02-15 22:51:00,
2013-02-15 16:02:00,20.0,14.0,-100.00,SSE,162,29.0,35.0,78,0.00,,,-99.99,,2013-02-15 23:02:00,
2013-02-15 16:11:00,19.0,13.0,-100.00,SSE,161,28.0,35.0,77,0.00,,,-99.99,,2013-02-15 23:11:00,
2013-02-15 16:21:00,19.0,13.0,-100.00,SSE,157,29.0,35.0,78,0.00,,,-99.99,,2013-02-15 23:21:00,
2013-02-15 16:31:00,19.0,14.0,-100.00,SSE,154,31.0,39.0,79,0.00,,,-99.99,,2013-02-15 23:31:00,
2013-02-15 16:42:00,19.0,14.0,-100.00,SSE,150,29.0,35.0,80,0.00,,,-99.99,,2013-02-15 23:42:00,
2013-02-15 16:52:00,19.0,14.0,-100.00,SSE,151,29.0,36.0,80,0.00,,,-99.99,,2013-02-15 23:52:00,
2013-02-15 17:02:00,20.0,13.0,-100.00,SSE,150,29.0,39.0,77,0.00,,,-99.99,,2013-02-16 00:02:00,
2013-02-15 17:11:00,20.0,14.0,-100.00,SSE,157,28.0,38.0,75,0.00,,,-99.99,,2013-02-16 00:11:00,
2013-02-15 17:21:00,22.0,12.0,-100.00,SSE,160,30.0,42.0,67,0.00,,,-99.99,,2013-02-16 00:21:00,
2013-02-15 17:32:00,20.0,14.0,-100.00,SSE,157,30.0,35.0,75,0.00,,,-99.99,,2013-02-16 00:32:00,
2013-02-15 17:41:00,21.0,14.0,-100.00,SSE,158,32.0,41.0,72,0.00,,,-99.99,,2013-02-16 00:41:00,
2013-02-15 17:51:00,20.0,15.0,-100.00,SSE,158,35.0,44.0,82,0.00,,,-99.99,,2013-02-16 00:51:00,
2013-02-15 18:02:00,20.0,16.0,-100.00,SSE,155,34.0,42.0,84,0.00,,,-99.99,,2013-02-16 01:02:00,
2013-02-15 18:11:00,21.0,16.0,-100.00,SSE,154,31.0,42.0,82,0.00,,,-99.99,,2013-02-16 01:11:00,
2013-02-15 18:21:00,20.0,16.0,-100.00,SSE,158,32.0,47.0,83,0.00,,,-99.99,,2013-02-16 01:21:00,
2013-02-15 18:31:00,20.0,16.0,-100.00,SSE,157,33.0,41.0,84,0.00,,,-99.99,,2013-02-16 01:31:00,
2013-02-15 18:41:00,20.0,17.0,-100.00,SSE,157,35.0,45.0,86,0.00,,,-99.99,,2013-02-16 01:41:00,
2013-02-15 18:51:00,21.0,17.0,-100.00,SSE,161,34.0,44.0,87,0.00,,,-99.99,,2013-02-16 01:51:00,
2013-02-15 19:01:00,21.0,17.0,-100.00,SSE,164,36.0,48.0,84,0.00,,,-99.99,,2013-02-16 02:01:00,
2013-02-15 19:11:00,-999.0,-99.9,-100.00,SSE,162,32.0,46.0,-999,-99.99,,,-99.99,,2013-02-16 02:11:00,
2013-02-15 19:21:00,22.0,17.0,-100.00,SSE,157,35.0,44.0,84,0.00,,,-99.99,,2013-02-16 02:21:00,
2013-02-15 19:31:00,22.0,17.0,-100.00,SSE,158,34.0,42.0,84,0.00,,,-99.99,,2013-02-16 02:31:00,
2013-02-15 19:42:00,22.0,17.0,-100.00,SSE,160,32.0,39.0,81,0.00,,,-99.99,,2013-02-16 02:42:00,
2013-02-15 19:52:00,22.0,16.0,-100.00,SSE,158,32.0,41.0,79,0.00,,,-99.99,,2013-02-16 02:52:00,
2013-02-15 20:01:00,22.0,16.0,-100.00,SSE,157,32.0,38.0,78,0.00,,,-99.99,,2013-02-16 03:01:00,
2013-02-15 20:11:00,22.0,17.0,-100.00,SSE,157,34.0,44.0,79,0.00,,,-99.99,,2013-02-16 03:11:00,
2013-02-15 20:21:00,23.0,17.0,-100.00,SSE,157,31.0,39.0,77,0.00,,,-99.99,,2013-02-16 03:21:00,
2013-02-15 20:31:00,23.0,17.0,-100.00,SSE,160,31.0,37.0,78,0.00,,,-99.99,,2013-02-16 03:31:00,
2013-02-15 20:41:00,23.0,17.0,-100.00,SSE,157,32.0,39.0,78,0.00,,,-99.99,,2013-02-16 03:41:00,
2013-02-15 20:52:00,23.0,17.0,-100.00,SSE,161,31.0,40.0,77,0.00,,,-99.99,,2013-02-16 03:52:00,
2013-02-15 21:01:00,23.0,16.0,-100.00,SSE,162,30.0,37.0,76,0.00,,,-99.99,,2013-02-16 04:01:00,
2013-02-15 21:11:00,22.0,16.0,-100.00,SSE,161,32.0,38.0,76,0.00,,,-99.99,,2013-02-16 04:11:00,
2013-02-15 21:21:00,22.0,16.0,-100.00,SSE,162,30.0,37.0,76,-99.99,,,-99.99,,2013-02-16 04:21:00,
2013-02-15 21:32:00,23.0,16.0,-100.00,SSE,167,31.0,42.0,75,0.00,,,-99.99,,2013-02-16 04:32:00,
2013-02-15 21:41:00,23.0,16.0,-100.00,SSE,164,31.0,40.0,75,0.00,,,-99.99,,2013-02-16 04:41:00,
2013-02-15 21:51:00,22.0,16.0,-100.00,South,169,29.0,37.0,77,0.00,,,-99.99,,2013-02-16 04:51:00,
2013-02-15 22:01:00,23.0,16.0,-100.00,SSE,162,32.0,37.0,75,0.00,,,-99.99,,2013-02-16 05:01:00,
2013-02-15 22:12:00,22.0,16.0,-100.00,SSE,167,32.0,40.0,77,0.00,,,-99.99,,2013-02-16 05:12:00,
2013-02-15 22:21:00,22.0,16.0,-100.00,SSE,168,31.0,39.0,78,0.00,,,-99.99,,2013-02-16 05:21:00,
2013-02-15 22:31:00,22.0,16.0,-100.00,South,171,30.0,38.0,78,0.00,,,-99.99,,2013-02-16 05:31:00,
2013-02-15 22:42:00,22.0,16.0,-100.00,South,172,32.0,38.0,77,0.00,,,-99.99,,2013-02-16 05:42:00,
2013-02-15 23:02:00,-999.0,-99.9,-100.00,SSE,167,34.0,42.0,-999,-99.99,,,-99.99,,2013-02-16 06:02:00,
2013-02-15 23:11:00,22.0,17.0,-100.00,SSE,164,37.0,46.0,78,0.00,,,-99.99,,2013-02-16 06:11:00,
2013-02-15 23:21:00,22.0,17.0,-100.00,SSE,164,35.0,43.0,78,0.00,,,-99.99,,2013-02-16 06:21:00,
2013-02-15 23:32:00,22.0,17.0,-100.00,SSE,160,36.0,45.0,81,0.00,,,-99.99,,2013-02-16 06:32:00,
2013-02-15 23:42:00,22.0,17.0,-100.00,SSE,160,37.0,48.0,81,0.00,,,-99.99,,2013-02-16 06:42:00,
2013-02-15 23:51:00,22.0,18.0,-100.00,SSE,162,37.0,45.0,84,0.00,,,-99.99,,2013-02-16 06:51:00,